Time;durP1;ratioP1;P1;durP2;ratioP2;P2;SDS_P1;SDS_P2;PMS_P1;PMS_P2;Temp;Humidity;BMP_temperature;BMP_pressure;BME280_temperature;BME280_humidity;BME280_pressure;Samples;Min_cycle;Max_cycle;Signal;HPM_P1;HPM_P2
2023/11/20 00:00:57;;;;;;;10.98;3.53;;;;;;;19.07;95.08;100751.06;5042643;28;20489;-45
2023/11/20 00:03:23;;;;;;;15.43;3.70;;;;;;;19.07;94.83;100762.03;5043058;28;20082;-44
2023/11/20 00:05:48;;;;;;;12.95;3.28;;;;;;;19.06;95.08;100754.91;5051992;28;20476;-45
2023/11/20 00:08:14;;;;;;;16.08;3.80;;;;;;;19.06;94.98;100767.84;5056731;28;20032;-43
2023/11/20 00:10:42;;;;;;;9.57;3.28;;;;;;;19.06;95.07;100762.34;5038479;28;20036;-45
2023/11/20 00:13:07;;;;;;;10.75;3.15;;;;;;;19.06;95.34;100763.16;5036293;28;20478;-46
2023/11/20 00:15:34;;;;;;;10.35;3.03;;;;;;;19.07;95.27;100766.72;5052490;28;20055;-44
2023/11/20 00:17:59;;;;;;;10.43;3.28;;;;;;;19.06;94.83;100760.41;5047511;28;20029;-45
2023/11/20 00:20:25;;;;;;;11.38;3.30;;;;;;;19.06;94.91;100765.09;5045152;28;20459;-39
2023/11/20 00:22:50;;;;;;;16.33;3.45;;;;;;;19.03;94.90;100755.50;5051091;28;20536;-39
2023/11/20 00:25:15;;;;;;;12.02;3.40;;;;;;;19.04;94.77;100754.41;5044937;28;20057;-45
2023/11/20 00:27:41;;;;;;;11.57;3.17;;;;;;;19.03;95.12;100757.41;5044380;28;20035;-39
2023/11/20 00:30:07;;;;;;;11.30;3.50;;;;;;;19.02;95.07;100762.09;5037664;28;20374;-40
2023/11/20 00:32:33;;;;;;;11.25;2.70;;;;;;;19.02;95.00;100766.78;5045793;28;20123;-39
2023/11/20 00:34:58;;;;;;;12.35;2.97;;;;;;;19.01;95.17;100768.69;5043028;28;20032;-44
2023/11/20 00:37:23;;;;;;;10.77;3.15;;;;;;;19.00;94.90;100769.78;5051924;28;20028;-44
2023/11/20 00:39:49;;;;;;;13.85;3.50;;;;;;;19.01;95.11;100773.38;5051586;28;20027;-39
2023/11/20 00:42:14;;;;;;;14.68;3.88;;;;;;;18.99;94.94;100770.88;5053720;28;20031;-38
2023/11/20 00:44:39;;;;;;;13.70;3.25;;;;;;;18.99;95.21;100768.13;5047098;28;20036;-39
2023/11/20 00:47:05;;;;;;;11.48;3.45;;;;;;;18.99;95.39;100764.59;5033938;28;20056;-38
2023/11/20 00:49:30;;;;;;;11.05;3.22;;;;;;;18.98;95.28;100763.78;5032935;28;20294;-39
2023/11/20 00:51:56;;;;;;;12.07;3.38;;;;;;;18.97;95.30;100764.03;5048619;28;20035;-38
2023/11/20 00:54:21;;;;;;;14.35;3.67;;;;;;;18.97;95.37;100769.53;5049822;28;20347;-39
2023/11/20 00:56:46;;;;;;;9.30;3.10;;;;;;;18.96;95.33;100776.13;5086455;28;20469;-38
2023/11/20 00:59:12;;;;;;;11.23;3.45;;;;;;;18.95;95.47;100772.56;5050822;28;20049;-39
2023/11/20 01:01:37;;;;;;;12.07;3.10;;;;;;;18.97;95.21;100780.53;5044767;28;20047;-46
2023/11/20 01:04:03;;;;;;;14.93;3.28;;;;;;;18.96;95.53;100784.38;5039482;28;20037;-45
2023/11/20 01:06:29;;;;;;;12.25;3.65;;;;;;;18.96;95.49;100787.94;5046826;28;20033;-46
2023/11/20 01:08:54;;;;;;;8.65;2.75;;;;;;;18.96;95.32;100778.88;5047423;28;20052;-45
2023/11/20 01:11:19;;;;;;;13.05;3.13;;;;;;;18.93;95.56;100780.25;5039225;28;20059;-44
2023/11/20 01:13:45;;;;;;;12.38;3.05;;;;;;;18.93;95.78;100785.75;5034755;28;20030;-45
2023/11/20 01:16:12;;;;;;;11.48;3.35;;;;;;;18.93;95.56;100780.25;5051508;28;20027;-43
2023/11/20 01:18:37;;;;;;;10.25;2.97;;;;;;;18.93;95.93;100791.25;5036438;28;20033;-38
2023/11/20 01:21:03;;;;;;;9.95;3.05;;;;;;;18.93;95.49;100794.00;5056540;28;20033;-39
2023/11/20 01:23:28;;;;;;;10.50;3.50;;;;;;;18.92;95.89;100795.13;5049123;28;20036;-39
2023/11/20 01:25:55;;;;;;;12.00;3.20;;;;;;;18.91;95.64;100805.28;5045429;28;20029;-45
2023/11/20 01:28:23;;;;;;;15.30;3.67;;;;;;;18.90;95.76;100800.03;5040925;28;20273;-45
2023/11/20 01:30:50;;;;;;;12.13;3.20;;;;;;;18.90;95.80;100808.28;5054722;28;20107;-39
2023/11/20 01:33:15;;;;;;;10.05;3.67;;;;;;;18.90;96.07;100808.28;5055586;28;20051;-40
2023/11/20 01:35:41;;;;;;;15.45;3.28;;;;;;;18.89;96.00;100807.44;5057950;28;20021;-39
2023/11/20 01:38:07;;;;;;;13.88;3.35;;;;;;;18.88;96.09;100811.31;5055336;28;20081;-39
2023/11/20 01:40:32;;;;;;;14.32;3.10;;;;;;;18.89;96.09;100823.09;5048363;28;20496;-39
2023/11/20 01:42:58;;;;;;;12.55;3.25;;;;;;;18.87;95.92;100815.16;5045799;28;20033;-38
2023/11/20 01:45:23;;;;;;;11.23;3.13;;;;;;;18.87;96.21;100820.66;5055994;28;20484;-39
2023/11/20 01:47:48;;;;;;;12.43;3.67;;;;;;;18.87;96.21;100817.91;5048629;28;20085;-40
2023/11/20 01:50:14;;;;;;;9.30;2.90;;;;;;;18.86;96.08;100824.50;5034880;28;20592;-39
2023/11/20 01:52:45;;;;;;;12.85;3.20;;;;;;;18.86;96.20;100805.28;5052873;28;20075;-39
2023/11/20 01:55:12;;;;;;;15.48;3.67;;;;;;;18.86;96.13;100819.00;5054922;28;20063;-39
2023/11/20 01:57:40;;;;;;;18.48;3.33;;;;;;;18.85;95.77;100822.84;5059511;28;20082;-39
2023/11/20 02:00:09;;;;;;;11.32;3.30;;;;;;;18.85;96.16;100824.78;5054713;28;20047;-39
2023/11/20 02:02:40;;;;;;;11.25;3.25;;;;;;;18.84;96.14;100815.72;5040829;28;20055;-39
2023/11/20 02:05:06;;;;;;;9.10;3.00;;;;;;;18.83;96.10;100810.50;5042753;28;20377;-39
2023/11/20 02:07:34;;;;;;;11.70;3.22;;;;;;;18.83;96.35;100811.31;5044054;28;20029;-39
2023/11/20 02:10:01;;;;;;;11.20;3.00;;;;;;;18.82;96.16;100808.88;5054377;28;20049;-39
2023/11/20 02:12:30;;;;;;;11.30;3.35;;;;;;;18.83;96.19;100805.81;5047608;28;20337;-39
2023/11/20 02:14:55;;;;;;;14.82;3.47;;;;;;;18.82;95.50;100809.72;5074459;28;20049;-39
2023/11/20 02:17:21;;;;;;;17.40;3.60;;;;;;;18.83;95.83;100813.25;5054169;28;20071;-39
2023/11/20 02:19:50;;;;;;;16.63;3.63;;;;;;;18.82;95.68;100815.19;5038691;28;20140;-45
2023/11/20 02:22:16;;;;;;;14.45;2.88;;;;;;;18.82;95.86;100817.94;5056064;28;20032;-46
2023/11/20 02:24:45;;;;;;;13.35;3.55;;;;;;;18.80;95.82;100811.91;5056848;28;20036;-47
2023/11/20 02:27:49;;;;;;;13.75;3.25;;;;;;;18.80;95.53;100819.31;5045875;28;20347;-43
2023/11/20 02:30:14;;;;;;;13.20;3.50;;;;;;;18.79;95.78;100814.94;5037014;28;20579;-43
2023/11/20 02:32:39;;;;;;;11.13;3.03;;;;;;;18.76;95.94;100811.66;5043957;28;20154;-44
2023/11/20 02:35:05;;;;;;;12.48;3.33;;;;;;;18.76;96.12;100811.66;5059158;28;20404;-43
2023/11/20 02:37:31;;;;;;;13.30;3.83;;;;;;;18.76;95.62;100806.16;5053324;28;20020;-44
2023/11/20 02:39:56;;;;;;;12.00;3.47;;;;;;;18.75;95.87;100801.75;5054204;28;20532;-43
2023/11/20 02:42:22;;;;;;;13.10;3.05;;;;;;;18.75;95.74;100809.19;5046412;28;20048;-43
2023/11/20 02:44:50;;;;;;;13.13;3.30;;;;;;;18.74;95.72;100804.81;5054386;28;20046;-39
2023/11/20 02:47:15;;;;;;;13.38;3.50;;;;;;;18.72;95.98;100807.84;5033510;28;20548;-39
2023/11/20 02:49:41;;;;;;;13.52;3.08;;;;;;;18.73;95.90;100808.63;5029709;28;20044;-39
2023/11/20 02:52:07;;;;;;;11.18;3.10;;;;;;;18.72;95.81;100804.25;5029564;28;20031;-39
2023/11/20 02:54:33;;;;;;;10.93;3.13;;;;;;;18.70;96.03;100798.22;5036062;28;20016;-39
2023/11/20 02:57:03;;;;;;;11.68;3.13;;;;;;;18.69;96.30;100810.31;5037347;28;20025;-39
2023/11/20 02:59:28;;;;;;;12.10;3.40;;;;;;;18.69;96.14;100802.09;5032966;28;20409;-39
2023/11/20 03:01:55;;;;;;;8.82;2.65;;;;;;;18.69;96.61;100804.84;5045114;28;20033;-39
2023/11/20 03:04:20;;;;;;;15.45;2.97;;;;;;;18.68;95.96;100811.41;5029735;28;20034;-39
2023/11/20 03:06:45;;;;;;;10.73;2.90;;;;;;;18.68;96.36;100816.91;5042541;28;20904;-39
2023/11/20 03:09:12;;;;;;;17.42;3.20;;;;;;;18.69;96.05;100818.56;5051541;28;20083;-38
2023/11/20 03:11:37;;;;;;;13.63;4.13;;;;;;;18.68;96.15;100817.72;5039820;28;20524;-40
2023/11/20 03:14:03;;;;;;;11.68;3.28;;;;;;;18.69;96.27;100815.81;5025544;28;20320;-40
2023/11/20 03:16:30;;;;;;;11.85;3.35;;;;;;;18.68;96.20;100808.69;5033679;28;20029;-39
2023/11/20 03:18:59;;;;;;;12.30;3.22;;;;;;;18.67;96.10;100796.84;5038717;28;20032;-43
2023/11/20 03:21:26;;;;;;;15.70;3.55;;;;;;;18.67;96.18;100813.31;5034264;28;20022;-43
2023/11/20 03:23:52;;;;;;;11.32;3.63;;;;;;;18.67;95.94;100807.03;5036764;28;20028;-43
2023/11/20 03:26:25;;;;;;;12.23;3.00;;;;;;;18.66;96.02;100814.41;5031671;28;20056;-43
2023/11/20 03:28:50;;;;;;;13.15;3.08;;;;;;;18.67;95.70;100812.53;5031865;28;20025;-46
2023/11/20 03:31:16;;;;;;;9.73;3.00;;;;;;;18.66;96.15;100816.38;5036329;28;20044;-43
2023/11/20 03:33:42;;;;;;;12.18;3.17;;;;;;;18.66;96.29;100808.13;5054539;28;20347;-45
2023/11/20 03:36:08;;;;;;;8.07;2.83;;;;;;;18.66;96.04;100819.09;5047413;28;20033;-44
2023/11/20 03:38:33;;;;;;;11.27;3.15;;;;;;;18.63;96.26;100812.25;5046913;28;20021;-44
2023/11/20 03:40:59;;;;;;;18.25;3.95;;;;;;;18.64;96.13;100810.31;5041929;28;20485;-44
2023/11/20 03:43:25;;;;;;;10.57;3.47;;;;;;;18.63;96.17;100820.50;5046988;28;20107;-45
2023/11/20 03:45:50;;;;;;;14.70;3.40;;;;;;;18.63;96.25;100814.19;5050458;28;20056;-43
2023/11/20 03:48:18;;;;;;;14.15;3.22;;;;;;;18.63;96.13;100817.75;5044403;28;20062;-46
2023/11/20 03:50:44;;;;;;;15.73;3.60;;;;;;;18.63;96.01;100822.44;5039497;28;20404;-45
2023/11/20 03:53:10;;;;;;;11.30;3.20;;;;;;;18.62;96.13;100807.88;5038299;28;20025;-44
2023/11/20 03:55:36;;;;;;;9.70;2.92;;;;;;;18.62;95.72;100813.34;5046490;28;20111;-45
2023/11/20 03:58:01;;;;;;;10.48;2.97;;;;;;;18.63;96.00;100809.50;5041592;28;20480;-39
2023/11/20 04:00:26;;;;;;;13.68;3.38;;;;;;;18.62;96.04;100807.88;5045909;28;20057;-40
2023/11/20 04:02:52;;;;;;;13.10;3.30;;;;;;;18.63;95.89;100811.44;5045014;28;20492;-40
2023/11/20 04:05:17;;;;;;;11.77;3.50;;;;;;;18.62;95.71;100807.88;5037465;28;20033;-39
2023/11/20 04:07:43;;;;;;;7.97;2.67;;;;;;;18.62;95.80;100809.81;5040556;28;20508;-38
2023/11/20 04:10:11;;;;;;;10.95;3.17;;;;;;;18.62;95.97;100798.81;5040890;28;20543;-39
2023/11/20 04:12:36;;;;;;;11.98;2.67;;;;;;;18.60;96.22;100810.06;5039189;28;20560;-39
2023/11/20 04:15:02;;;;;;;14.57;3.05;;;;;;;18.61;96.02;100817.19;5036004;28;20051;-44
2023/11/20 04:17:27;;;;;;;13.05;3.33;;;;;;;18.61;95.38;100817.19;5043800;28;20385;-39
2023/11/20 04:19:53;;;;;;;11.55;3.40;;;;;;;18.62;94.95;100816.09;5032467;28;20050;-39
2023/11/20 04:22:18;;;;;;;11.30;3.30;;;;;;;18.62;95.41;100818.84;5030458;28;20029;-40
2023/11/20 04:24:44;;;;;;;11.57;3.10;;;;;;;18.61;95.51;100811.72;5053221;28;20082;-40
2023/11/20 04:27:09;;;;;;;9.77;3.17;;;;;;;18.61;95.54;100814.47;5041136;28;20052;-46
2023/11/20 04:29:35;;;;;;;19.35;3.58;;;;;;;18.59;95.14;100816.69;5032601;28;20032;-45
2023/11/20 04:32:01;;;;;;;11.23;3.10;;;;;;;18.59;95.00;100817.50;5055744;28;20025;-44
2023/11/20 04:34:26;;;;;;;14.50;3.50;;;;;;;18.58;95.19;100818.59;5051560;28;20032;-43
2023/11/20 04:36:51;;;;;;;8.75;2.88;;;;;;;18.56;95.63;100817.22;5055694;28;20028;-46
2023/11/20 04:39:17;;;;;;;10.93;3.13;;;;;;;18.57;95.47;100818.88;5058284;28;20020;-43
2023/11/20 04:41:42;;;;;;;15.02;3.55;;;;;;;18.56;95.37;100819.97;5049008;28;20463;-45
2023/11/20 04:44:08;;;;;;;10.80;3.10;;;;;;;18.57;94.91;100821.63;5040956;28;20541;-47
2023/11/20 04:46:34;;;;;;;10.43;3.10;;;;;;;18.56;95.27;100817.22;5043324;28;20061;-44
2023/11/20 04:48:59;;;;;;;14.43;3.22;;;;;;;18.55;95.45;100826.56;5052862;28;20036;-44
2023/11/20 04:51:25;;;;;;;10.77;2.85;;;;;;;18.55;95.33;100812.84;5050267;28;20020;-39
2023/11/20 04:53:51;;;;;;;11.85;3.42;;;;;;;18.55;95.05;100818.31;5059779;28;20637;-44
2023/11/20 04:56:16;;;;;;;11.23;3.42;;;;;;;18.54;95.75;100811.19;5057931;28;20054;-44
2023/11/20 04:58:44;;;;;;;17.77;3.72;;;;;;;18.52;95.53;100807.94;5046983;28;20397;-45
2023/11/20 05:01:11;;;;;;;9.85;3.00;;;;;;;18.51;95.81;100809.03;5045217;28;20044;-46
2023/11/20 05:03:37;;;;;;;12.88;3.20;;;;;;;18.51;95.77;100807.09;5045339;28;20055;-45
2023/11/20 05:06:06;;;;;;;8.70;2.92;;;;;;;18.52;95.63;100810.66;5042822;28;20029;-44
2023/11/20 05:08:31;;;;;;;10.52;3.10;;;;;;;18.52;95.24;100807.94;5034064;28;20406;-44
2023/11/20 05:10:57;;;;;;;10.07;2.90;;;;;;;18.51;95.59;100812.56;5033003;28;20037;-43
2023/11/20 05:13:22;;;;;;;11.25;2.92;;;;;;;18.51;95.73;100817.25;5038583;28;20033;-43
2023/11/20 05:15:47;;;;;;;11.40;2.80;;;;;;;18.49;95.47;100814.81;5040579;28;20094;-44
2023/11/20 05:18:13;;;;;;;11.38;3.13;;;;;;;18.49;95.39;100825.78;5044758;28;20039;-44
2023/11/20 05:20:39;;;;;;;11.93;3.00;;;;;;;18.49;95.86;100820.28;5030339;28;20212;-45
2023/11/20 05:23:04;;;;;;;12.20;3.22;;;;;;;18.49;95.80;100819.44;5047115;28;20111;-45
2023/11/20 05:25:30;;;;;;;13.70;3.10;;;;;;;18.47;95.87;100822.47;5048593;28;20057;-39
2023/11/20 05:27:55;;;;;;;11.82;2.78;;;;;;;18.47;95.78;100827.97;5064566;28;20405;-39
2023/11/20 05:30:20;;;;;;;9.07;2.75;;;;;;;18.46;96.02;100825.53;5048573;28;20028;-39
2023/11/20 05:32:46;;;;;;;11.55;3.20;;;;;;;18.47;95.80;100824.38;5053513;28;20438;-40
2023/11/20 05:35:12;;;;;;;9.80;2.72;;;;;;;18.47;95.95;100827.97;5059189;28;20055;-40
2023/11/20 05:37:37;;;;;;;10.57;3.22;;;;;;;18.46;96.10;100820.84;5052360;28;20101;-40
2023/11/20 05:40:03;;;;;;;16.83;3.65;;;;;;;18.47;96.17;100824.38;5055855;28;20057;-39
2023/11/20 05:42:28;;;;;;;10.50;3.20;;;;;;;18.46;95.87;100822.78;5053761;28;20428;-39
2023/11/20 05:44:54;;;;;;;12.00;2.97;;;;;;;18.46;96.27;100820.84;5048461;28;20032;-40
2023/11/20 05:47:19;;;;;;;9.50;2.85;;;;;;;18.46;95.83;100825.53;5046524;28;20036;-39
2023/11/20 05:49:44;;;;;;;9.10;2.40;;;;;;;18.45;96.08;100827.41;5043927;28;20029;-39
2023/11/20 05:52:10;;;;;;;11.05;3.17;;;;;;;18.44;95.92;100823.88;5056529;28;20111;-45
2023/11/20 05:54:35;;;;;;;12.70;3.33;;;;;;;18.44;95.98;100832.09;5054826;28;20108;-38
2023/11/20 05:57:01;;;;;;;9.63;2.70;;;;;;;18.44;95.86;100829.34;5051531;28;20112;-39
2023/11/20 05:59:26;;;;;;;13.23;2.88;;;;;;;18.44;96.11;100832.09;5058916;28;20092;-39
2023/11/20 06:01:52;;;;;;;8.85;2.90;;;;;;;18.43;96.21;100824.97;5047441;28;20123;-41
2023/11/20 06:04:17;;;;;;;11.60;3.28;;;;;;;18.45;96.18;100821.94;5037791;28;20033;-39
2023/11/20 06:06:42;;;;;;;9.70;3.15;;;;;;;18.48;96.27;100823.28;5047583;28;20028;-40
2023/11/20 06:09:10;;;;;;;10.43;3.05;;;;;;;18.52;96.10;100827.94;5043719;28;20022;-40
2023/11/20 06:11:36;;;;;;;13.52;3.30;;;;;;;18.58;95.75;100832.31;5045369;28;20540;-43
2023/11/20 06:14:01;;;;;;;13.15;3.20;;;;;;;18.64;95.47;100827.63;5036740;28;20132;-46
2023/11/20 06:16:27;;;;;;;10.75;3.10;;;;;;;18.71;95.43;100833.63;5044161;28;20033;-44
2023/11/20 06:18:52;;;;;;;11.15;3.33;;;;;;;18.79;94.94;100845.16;5045472;28;20118;-44
2023/11/20 06:21:18;;;;;;;11.60;3.47;;;;;;;18.87;94.89;100839.88;5043498;28;20033;-39
2023/11/20 06:23:44;;;;;;;10.73;3.72;;;;;;;18.97;94.19;100840.94;5046598;28;20396;-41
2023/11/20 06:26:09;;;;;;;8.23;2.88;;;;;;;19.05;94.09;100849.41;5038428;28;20029;-40
2023/11/20 06:28:35;;;;;;;9.75;3.08;;;;;;;19.15;93.76;100843.03;5037838;28;20025;-39
2023/11/20 06:31:00;;;;;;;11.05;3.22;;;;;;;19.25;93.74;100833.88;5043177;28;20398;-39
2023/11/20 06:33:26;;;;;;;11.55;3.08;;;;;;;19.35;93.31;100833.00;5054384;28;20037;-39
2023/11/20 06:35:51;;;;;;;10.50;3.58;;;;;;;19.44;92.66;100842.28;5049351;28;20067;-39
2023/11/20 06:38:16;;;;;;;7.85;2.80;;;;;;;19.54;92.70;100835.88;5052031;28;20260;-39
2023/11/20 06:40:42;;;;;;;8.38;3.40;;;;;;;19.64;92.04;100844.03;5047145;28;20032;-39
2023/11/20 06:43:08;;;;;;;10.65;2.95;;;;;;;19.71;91.71;100839.03;5044843;28;20025;-39
2023/11/20 06:45:34;;;;;;;15.57;4.00;;;;;;;19.81;91.49;100840.06;5045527;28;20013;-39
2023/11/20 06:48:00;;;;;;;12.13;3.35;;;;;;;19.90;91.34;100837.53;5038574;28;20512;-39
2023/11/20 06:50:26;;;;;;;9.73;3.40;;;;;;;19.98;90.75;100840.47;5035063;28;20518;-39
2023/11/20 06:52:52;;;;;;;10.95;3.58;;;;;;;20.08;90.61;100847.78;5050227;28;20029;-40
2023/11/20 06:55:18;;;;;;;9.98;3.30;;;;;;;20.14;90.15;100845.81;5038940;28;20094;-39
2023/11/20 06:57:44;;;;;;;13.15;3.53;;;;;;;20.18;89.93;100850.47;5049993;28;20489;-39
2023/11/20 07:00:12;;;;;;;13.50;3.40;;;;;;;20.22;89.76;100849.84;5064089;28;20240;-39
2023/11/20 07:02:38;;;;;;;8.90;3.50;;;;;;;20.24;89.96;100853.16;5050476;28;20117;-39
2023/11/20 07:05:04;;;;;;;11.32;3.45;;;;;;;20.22;89.51;100856.19;5054477;28;20671;-39
2023/11/20 07:07:29;;;;;;;11.60;3.20;;;;;;;20.23;89.67;100852.31;5053662;28;20529;-38
2023/11/20 07:09:55;;;;;;;12.18;3.88;;;;;;;20.19;89.06;100854.81;5037986;28;20637;-44
2023/11/20 07:12:20;;;;;;;11.90;3.72;;;;;;;20.17;89.21;100851.56;5037842;28;20516;-44
2023/11/20 07:14:46;;;;;;;14.45;3.80;;;;;;;20.14;89.08;100854.06;5043671;28;20032;-43
2023/11/20 07:17:12;;;;;;;11.52;3.42;;;;;;;20.11;89.33;100858.22;5040607;28;20062;-43
2023/11/20 07:19:37;;;;;;;9.85;3.28;;;;;;;20.09;89.46;100857.69;5042325;28;20356;-43
2023/11/20 07:22:03;;;;;;;13.25;4.05;;;;;;;20.07;89.32;100856.34;5035875;28;20482;-43
2023/11/20 07:24:28;;;;;;;11.32;3.22;;;;;;;20.03;89.32;100858.84;5030626;28;20028;-43
2023/11/20 07:26:54;;;;;;;14.30;4.13;;;;;;;20.00;89.12;100857.50;5035041;28;20068;-44
2023/11/20 07:29:20;;;;;;;14.55;3.67;;;;;;;19.97;89.37;100860.03;5032356;28;20037;-45
2023/11/20 07:31:45;;;;;;;14.18;3.85;;;;;;;19.95;89.45;100860.31;5039873;28;20083;-45
2023/11/20 07:34:10;;;;;;;10.13;3.15;;;;;;;19.93;89.18;100858.97;5041552;28;20029;-45
2023/11/20 07:36:36;;;;;;;13.30;3.92;;;;;;;19.90;89.08;100873.28;5049897;28;20109;-45
2023/11/20 07:39:03;;;;;;;10.02;3.42;;;;;;;19.87;89.14;100871.94;5053102;28;20041;-45
2023/11/20 07:41:28;;;;;;;12.90;3.78;;;;;;;19.84;89.08;100878.00;5039463;28;20460;-45
2023/11/20 07:43:54;;;;;;;14.68;3.58;;;;;;;19.81;89.29;100884.88;5034835;28;20108;-45
2023/11/20 07:46:19;;;;;;;13.40;4.05;;;;;;;19.80;89.66;100879.66;5027515;28;20048;-45
2023/11/20 07:48:45;;;;;;;15.82;4.00;;;;;;;19.74;89.55;100881.63;5044955;28;20441;-45
2023/11/20 07:51:10;;;;;;;9.48;3.55;;;;;;;19.73;89.39;100882.75;5044354;28;20059;-44
2023/11/20 07:53:36;;;;;;;11.05;3.38;;;;;;;19.70;89.83;100884.13;5044677;28;20116;-44
2023/11/20 07:56:01;;;;;;;11.77;3.22;;;;;;;19.69;89.87;100878.91;5050166;28;20028;-44
2023/11/20 07:58:27;;;;;;;7.97;3.08;;;;;;;19.67;89.93;100889.41;5042893;28;20025;-44
2023/11/20 08:00:53;;;;;;;11.85;3.40;;;;;;;19.65;89.94;100888.88;5052624;28;20074;-44
2023/11/20 08:03:18;;;;;;;13.90;3.58;;;;;;;19.62;90.09;100881.19;5053328;28;20020;-44
2023/11/20 08:05:45;;;;;;;11.13;3.70;;;;;;;19.60;90.22;100875.16;5054777;28;20025;-46
2023/11/20 08:08:14;;;;;;;13.07;3.70;;;;;;;19.59;89.79;100881.75;5048747;28;20032;-43
2023/11/20 08:10:41;;;;;;;10.45;3.55;;;;;;;19.54;89.70;100886.19;5040782;28;20032;-47
2023/11/20 08:13:07;;;;;;;17.45;3.95;;;;;;;19.54;90.26;100885.38;5039505;28;20075;-44
2023/11/20 08:15:32;;;;;;;11.68;3.78;;;;;;;19.51;90.52;100884.00;5038619;28;20489;-44
2023/11/20 08:17:57;;;;;;;12.68;3.50;;;;;;;19.49;90.31;100883.47;5033883;28;20650;-39
2023/11/20 08:20:23;;;;;;;12.20;3.50;;;;;;;19.48;89.88;100892.00;5030040;28;20421;-39
2023/11/20 08:22:48;;;;;;;11.70;3.72;;;;;;;19.46;89.82;100878.56;5034958;28;20032;-40
2023/11/20 08:25:14;;;;;;;13.07;3.75;;;;;;;19.44;89.86;100891.75;5048250;28;20079;-40
2023/11/20 08:27:40;;;;;;;14.63;3.70;;;;;;;19.43;89.78;100878.31;5046423;28;20024;-39
2023/11/20 08:30:08;;;;;;;13.95;3.72;;;;;;;19.42;89.69;100884.91;5040598;28;20029;-40
2023/11/20 08:32:33;;;;;;;14.27;3.88;;;;;;;19.39;89.93;100875.31;5036483;28;20116;-40
2023/11/20 08:34:59;;;;;;;13.73;3.92;;;;;;;19.37;89.23;100874.75;5057256;28;20107;-39
2023/11/20 08:37:24;;;;;;;12.00;3.58;;;;;;;19.33;89.17;100877.25;5053683;28;20032;-40
2023/11/20 08:39:50;;;;;;;13.00;3.55;;;;;;;19.32;89.60;100886.59;5041570;28;20090;-40
2023/11/20 08:42:16;;;;;;;13.60;3.90;;;;;;;19.31;89.28;100878.66;5041950;28;20025;-41
2023/11/20 08:44:41;;;;;;;14.48;3.50;;;;;;;19.29;89.79;100875.34;5026980;28;20446;-40
2023/11/20 08:47:07;;;;;;;11.10;3.35;;;;;;;19.28;89.50;100884.72;5034316;28;20024;-40
2023/11/20 08:49:32;;;;;;;13.00;4.00;;;;;;;19.26;89.39;100886.94;5025795;28;20100;-39
2023/11/20 08:51:58;;;;;;;18.80;5.28;;;;;;;19.23;89.97;100885.56;5038701;28;20070;-41
2023/11/20 08:54:24;;;;;;;20.42;5.30;;;;;;;19.22;90.02;100882.00;5034368;28;20596;-39
2023/11/20 08:56:51;;;;;;;22.65;5.53;;;;;;;19.22;90.51;100878.44;5031923;28;20029;-40
2023/11/20 08:59:17;;;;;;;18.45;6.18;;;;;;;19.20;90.80;100881.47;5028826;28;20053;-39
2023/11/20 09:01:45;;;;;;;20.52;6.00;;;;;;;19.21;90.75;100879.53;5040136;28;20492;-39
2023/11/20 09:04:11;;;;;;;18.73;5.30;;;;;;;19.19;90.98;100877.09;5024225;28;20477;-38
2023/11/20 09:06:36;;;;;;;20.00;5.38;;;;;;;19.19;90.80;100881.75;5060530;28;20035;-39
2023/11/20 09:09:04;;;;;;;21.05;5.68;;;;;;;19.19;91.32;100881.75;5054458;28;20078;-39
2023/11/20 09:11:31;;;;;;;24.50;5.72;;;;;;;19.18;91.04;100891.09;5033414;28;20025;-39
2023/11/20 09:13:57;;;;;;;21.85;5.22;;;;;;;19.16;90.91;100888.63;5035480;28;20029;-38
2023/11/20 09:16:22;;;;;;;20.00;5.60;;;;;;;19.15;90.86;100892.47;5047376;28;20490;-38
2023/11/20 09:18:48;;;;;;;20.92;5.78;;;;;;;19.14;90.90;100890.00;5040171;28;20123;-40
2023/11/20 09:21:14;;;;;;;193.63;15.23;;;;;;;19.12;91.12;100886.75;5027994;28;20577;-38
2023/11/20 09:23:40;;;;;;;60.25;10.70;;;;;;;19.12;92.09;100889.50;5044562;28;20060;-39
2023/11/20 09:26:11;;;;;;;81.75;11.77;;;;;;;19.16;92.83;100887.81;5041221;28;20071;-39
2023/11/20 09:28:37;;;;;;;64.45;12.10;;;;;;;19.19;93.46;100893.56;5031176;28;20032;-39
2023/11/20 09:31:03;;;;;;;56.85;10.45;;;;;;;19.26;93.12;100886.94;5043220;28;20028;-38
2023/11/20 09:33:29;;;;;;;73.65;10.95;;;;;;;19.28;93.16;100885.53;5044248;28;20021;-40
2023/11/20 09:35:55;;;;;;;60.97;11.98;;;;;;;19.31;93.68;100870.41;5045376;28;20028;-40
2023/11/20 09:38:20;;;;;;;51.40;11.48;;;;;;;19.33;94.15;100880.00;5051697;28;20116;-39
2023/11/20 09:40:46;;;;;;;50.20;9.30;;;;;;;19.36;93.91;100876.69;5038055;28;20110;-40
2023/11/20 09:43:12;;;;;;;44.53;8.75;;;;;;;19.40;93.49;100871.47;5050237;28;20029;-39
2023/11/20 09:45:39;;;;;;;45.90;9.63;;;;;;;19.40;93.41;100866.78;5078477;28;20027;-38
2023/11/20 09:48:06;;;;;;;39.90;9.15;;;;;;;19.42;93.44;100860.16;5041183;28;20108;-40
2023/11/20 09:50:32;;;;;;;43.70;8.13;;;;;;;19.44;93.78;100864.28;5041991;28;20024;-39
2023/11/20 09:52:58;;;;;;;39.53;7.53;;;;;;;19.45;92.92;100862.34;5050978;28;20532;-39
2023/11/20 09:55:24;;;;;;;30.27;7.47;;;;;;;19.47;93.12;100866.47;5053835;28;20069;-42
2023/11/20 09:57:50;;;;;;;31.00;6.70;;;;;;;19.48;93.00;100868.06;5047423;28;20033;-41
2023/11/20 10:00:17;;;;;;;30.60;6.90;;;;;;;19.48;92.74;100859.84;5034849;28;20049;-41
2023/11/20 10:02:46;;;;;;;26.65;6.78;;;;;;;19.49;92.89;100869.72;5073818;28;20055;-38
2023/11/20 10:05:17;;;;;;;28.10;6.22;;;;;;;19.51;92.75;100863.94;5032943;28;20040;-39
2023/11/20 10:07:43;;;;;;;24.27;5.97;;;;;;;19.51;92.63;100853.78;5035336;28;20044;-39
2023/11/20 10:10:10;;;;;;;20.60;6.38;;;;;;;19.53;92.80;100861.72;5035046;28;20414;-38
2023/11/20 10:12:36;;;;;;;23.35;6.50;;;;;;;19.55;92.50;100859.53;5048438;28;20409;-39
2023/11/20 10:15:02;;;;;;;21.30;6.78;;;;;;;19.60;92.55;100866.91;5031030;28;20025;-40
2023/11/20 10:17:29;;;;;;;17.83;5.35;;;;;;;19.63;92.18;100875.41;5043380;28;20507;-38
2023/11/20 10:19:54;;;;;;;23.35;6.18;;;;;;;19.65;92.23;100859.44;5038796;28;20410;-39
2023/11/20 10:22:24;;;;;;;23.92;5.60;;;;;;;19.68;92.28;100858.88;5040347;28;20041;-48
2023/11/20 10:24:50;;;;;;;25.33;5.18;;;;;;;19.72;91.95;100865.41;5055541;28;20051;-44
2023/11/20 10:27:17;;;;;;;25.35;5.20;;;;;;;19.75;91.53;100849.47;5041183;28;20024;-41
2023/11/20 10:29:42;;;;;;;18.70;5.00;;;;;;;19.78;91.23;100849.72;5038683;28;20034;-43
2023/11/20 10:32:08;;;;;;;18.20;5.05;;;;;;;19.83;90.78;100844.19;5047377;28;20336;-45
2023/11/20 10:34:33;;;;;;;13.93;4.53;;;;;;;19.87;90.06;100844.44;5049699;28;20044;-42
2023/11/20 10:37:08;;;;;;;21.60;4.78;;;;;;;19.95;89.90;100845.72;5052604;28;20032;-44
2023/11/20 10:39:35;;;;;;;20.35;5.07;;;;;;;20.00;89.74;100837.41;5059568;28;20426;-44
2023/11/20 10:42:00;;;;;;;16.08;4.07;;;;;;;20.06;89.30;100840.94;5046866;28;20036;-42
2023/11/20 10:44:25;;;;;;;13.60;4.50;;;;;;;20.12;88.95;100837.88;5047107;28;20025;-44
2023/11/20 10:46:52;;;;;;;19.88;4.78;;;;;;;20.16;89.20;100832.59;5048251;28;20029;-41
2023/11/20 10:49:21;;;;;;;55.90;6.20;;;;;;;20.23;88.93;100833.03;5047500;28;20032;-42
2023/11/20 10:51:55;;;;;;;21.27;4.68;;;;;;;20.27;89.04;100831.38;5047967;28;20551;-43
2023/11/20 10:54:49;;;;;;;21.50;4.33;;;;;;;20.31;88.84;100817.84;5043902;28;20381;-43
2023/11/20 10:57:16;;;;;;;17.92;4.10;;;;;;;20.38;88.29;100814.72;5030984;28;20284;-45
2023/11/20 10:59:43;;;;;;;27.65;4.55;;;;;;;20.40;87.93;100809.75;5032322;28;20057;-46
2023/11/20 11:02:17;;;;;;;18.30;4.68;;;;;;;20.41;87.84;100812.22;5040756;28;20037;-46
2023/11/20 11:04:44;;;;;;;12.93;4.03;;;;;;;20.43;87.35;100820.16;5048964;28;20089;-46
2023/11/20 11:07:12;;;;;;;13.18;4.10;;;;;;;20.42;87.57;100816.59;5036512;28;20021;-47
2023/11/20 11:09:38;;;;;;;15.40;3.47;;;;;;;20.42;87.58;100815.81;5059571;28;20025;-48
2023/11/20 11:12:06;;;;;;;14.80;3.95;;;;;;;20.42;87.33;100810.28;5044066;28;20076;-46